Time;durP1;ratioP1;P1;durP2;ratioP2;P2;SDS_P1;SDS_P2;PMS_P1;PMS_P2;Temp;Humidity;BMP_temperature;BMP_pressure;BME280_temperature;BME280_humidity;BME280_pressure;Samples;Min_cycle;Max_cycle;Signal;HPM_P1;HPM_P2
2020/12/05 00:02:21;;;;;;;1.70;1.33;;;19.40;46.70;;;;;;5017685;28;20361;-46
2020/12/05 00:04:46;;;;;;;1.95;1.42;;;19.40;46.70;;;;;;5017298;28;20412;-49
2020/12/05 00:07:13;;;;;;;1.25;1.15;;;19.40;46.70;;;;;;5017227;28;20349;-48
2020/12/05 00:09:39;;;;;;;1.75;0.82;;;19.30;47.30;;;;;;5017221;28;20033;-47
2020/12/05 00:12:09;;;;;;;1.55;1.27;;;19.30;46.60;;;;;;5017418;28;20038;-46
2020/12/05 00:14:35;;;;;;;1.30;1.17;;;19.30;46.60;;;;;;5017485;28;20030;-45
2020/12/05 00:17:01;;;;;;;1.35;1.25;;;19.20;46.50;;;;;;5017382;28;20018;-45
2020/12/05 00:19:27;;;;;;;1.90;1.00;;;19.20;46.50;;;;;;5017437;28;20030;-47
2020/12/05 00:21:57;;;;;;;1.80;1.40;;;19.20;46.50;;;;;;5017206;28;20092;-46
2020/12/05 00:24:23;;;;;;;1.27;1.05;;;19.20;46.50;;;;;;5017275;28;20112;-45
2020/12/05 00:26:53;;;;;;;1.45;1.17;;;19.20;46.50;;;;;;5016919;28;20022;-45
2020/12/05 00:29:20;;;;;;;1.23;1.13;;;19.20;46.50;;;;;;4999925;28;20360;-47
2020/12/05 00:31:50;;;;;;;1.25;1.00;;;19.20;46.50;;;;;;5017157;28;20125;-45
2020/12/05 00:34:15;;;;;;;2.08;1.38;;;19.10;46.40;;;;;;5016538;28;20029;-46
2020/12/05 00:36:41;;;;;;;2.03;1.10;;;19.10;46.40;;;;;;5017054;28;20026;-46
2020/12/05 00:39:07;;;;;;;1.27;1.00;;;19.10;46.40;;;;;;5016659;28;20037;-47
2020/12/05 00:41:32;;;;;;;1.05;0.95;;;19.10;46.40;;;;;;5016916;28;20479;-46
2020/12/05 00:43:58;;;;;;;1.27;1.08;;;19.00;46.40;;;;;;5016097;28;20018;-45
2020/12/05 00:46:23;;;;;;;1.15;0.95;;;19.00;46.30;;;;;;5016863;28;20463;-45
2020/12/05 00:48:49;;;;;;;2.92;1.10;;;19.00;46.30;;;;;;5016702;28;20088;-47
2020/12/05 00:51:14;;;;;;;1.48;1.25;;;19.00;46.30;;;;;;5016784;28;20148;-47
2020/12/05 00:53:40;;;;;;;1.55;1.15;;;19.00;46.30;;;;;;5017041;28;20111;-46
2020/12/05 00:56:06;;;;;;;1.65;1.02;;;19.00;46.30;;;;;;5016879;28;20021;-45
2020/12/05 00:58:34;;;;;;;1.27;1.10;;;19.00;46.30;;;;;;5016592;28;20423;-46
2020/12/05 01:01:04;;;;;;;2.08;1.10;;;19.00;46.30;;;;;;5016451;28;20036;-47
2020/12/05 01:03:31;;;;;;;0.80;0.80;;;18.90;46.30;;;;;;5016317;28;20028;-46
2020/12/05 01:05:57;;;;;;;1.30;1.00;;;18.90;46.20;;;;;;5016521;28;20026;-46
2020/12/05 01:08:23;;;;;;;1.00;0.93;;;18.90;46.20;;;;;;5016535;28;20088;-46
2020/12/05 01:10:49;;;;;;;1.10;0.95;;;18.90;46.20;;;;;;5016340;28;20467;-44
2020/12/05 01:13:15;;;;;;;1.30;0.98;;;18.90;46.10;;;;;;5016581;28;20029;-48
2020/12/05 01:15:40;;;;;;;1.42;1.00;;;18.90;46.20;;;;;;5016607;28;20353;-47
2020/12/05 01:18:06;;;;;;;1.40;0.95;;;18.80;46.10;;;;;;5016070;28;20025;-45
2020/12/05 01:20:31;;;;;;;1.42;1.10;;;18.80;46.10;;;;;;5016368;28;20022;-46
2020/12/05 01:22:57;;;;;;;0.95;0.90;;;18.90;46.10;;;;;;5016507;28;20036;-44
2020/12/05 01:25:22;;;;;;;1.95;0.90;;;18.80;46.10;;;;;;5016096;28;20030;-47
2020/12/05 01:27:47;;;;;;;2.05;1.30;;;18.80;46.10;;;;;;5015809;28;20061;-45
2020/12/05 01:30:13;;;;;;;1.00;0.98;;;18.80;46.10;;;;;;5017001;28;20026;-48
2020/12/05 01:32:38;;;;;;;1.08;0.90;;;18.70;46.00;;;;;;5015997;28;20084;-47
2020/12/05 01:35:05;;;;;;;1.10;1.00;;;18.70;46.00;;;;;;5016039;28;20026;-45
2020/12/05 01:37:31;;;;;;;1.13;1.02;;;18.70;46.00;;;;;;5015982;28;20472;-46
2020/12/05 01:39:57;;;;;;;1.20;1.10;;;18.70;46.00;;;;;;5016155;28;20114;-45
2020/12/05 01:42:22;;;;;;;1.58;1.30;;;18.70;46.00;;;;;;5015605;28;20057;-45
2020/12/05 01:44:48;;;;;;;0.88;0.88;;;18.70;46.00;;;;;;5016043;28;20376;-47
2020/12/05 01:47:13;;;;;;;0.90;0.85;;;18.60;45.90;;;;;;5015236;28;20049;-45
2020/12/05 01:49:40;;;;;;;1.02;0.95;;;18.70;45.90;;;;;;5015820;28;20045;-46
2020/12/05 01:52:06;;;;;;;1.00;0.90;;;18.60;45.90;;;;;;5015547;28;20073;-45
2020/12/05 01:54:32;;;;;;;0.90;0.90;;;18.60;45.90;;;;;;5015947;28;20022;-46
2020/12/05 01:57:02;;;;;;;1.27;1.00;;;18.60;45.90;;;;;;5015428;28;20045;-45
2020/12/05 01:59:28;;;;;;;1.67;1.00;;;18.60;45.90;;;;;;5015672;28;20113;-44
2020/12/05 02:01:57;;;;;;;0.82;0.80;;;18.60;45.90;;;;;;5015801;28;20112;-47
2020/12/05 02:04:26;;;;;;;1.98;1.30;;;18.60;45.80;;;;;;5015666;28;20033;-46
2020/12/05 02:07:16;;;;;;;1.08;0.98;;;18.50;45.80;;;;;;5015184;28;20045;-45
2020/12/05 02:09:49;;;;;;;0.85;0.70;;;18.50;45.80;;;;;;5015632;28;20022;-46
2020/12/05 02:12:34;;;;;;;1.10;0.90;;;18.50;45.80;;;;;;5015373;28;20034;-46
2020/12/05 02:15:25;;;;;;;1.00;0.80;;;18.50;45.80;;;;;;5015711;28;20079;-45
2020/12/05 02:17:58;;;;;;;1.10;1.00;;;18.50;45.80;;;;;;5003890;28;20087;-47
2020/12/05 02:20:25;;;;;;;1.80;0.90;;;18.50;45.80;;;;;;5015292;28;20444;-45
2020/12/05 02:22:51;;;;;;;1.42;1.15;;;18.40;45.80;;;;;;5015116;28;20025;-45
2020/12/05 02:25:17;;;;;;;1.60;0.90;;;18.40;45.70;;;;;;5015765;28;20169;-45
2020/12/05 02:27:43;;;;;;;0.93;0.90;;;18.40;45.70;;;;;;5015555;28;20100;-47
2020/12/05 02:30:10;;;;;;;0.80;0.80;;;18.50;45.80;;;;;;5015284;28;20033;-46
2020/12/05 02:32:36;;;;;;;1.00;0.90;;;18.40;45.80;;;;;;5015360;28;20056;-48
2020/12/05 02:35:03;;;;;;;0.73;0.73;;;18.40;45.80;;;;;;5015033;28;20026;-45
2020/12/05 02:37:29;;;;;;;1.40;1.00;;;18.40;45.70;;;;;;5014701;28;20437;-47
2020/12/05 02:39:56;;;;;;;1.23;0.90;;;18.40;45.70;;;;;;5015091;28;20061;-45
2020/12/05 02:42:22;;;;;;;1.15;0.95;;;18.40;45.70;;;;;;5015197;28;20092;-45
2020/12/05 02:44:52;;;;;;;1.30;0.82;;;18.30;45.60;;;;;;5015157;28;20380;-46
2020/12/05 02:47:18;;;;;;;1.52;1.00;;;18.30;45.70;;;;;;5015275;28;20022;-44
2020/12/05 02:49:47;;;;;;;1.02;0.90;;;18.30;45.60;;;;;;5014884;28;20061;-45
2020/12/05 02:52:13;;;;;;;0.90;0.90;;;18.30;45.60;;;;;;5015356;28;20049;-47
2020/12/05 02:54:39;;;;;;;1.17;0.88;;;18.30;45.60;;;;;;5014932;28;20110;-45
2020/12/05 02:57:05;;;;;;;1.00;0.80;;;18.30;45.70;;;;;;5015203;28;20106;-46
2020/12/05 02:59:32;;;;;;;1.67;0.85;;;18.30;45.60;;;;;;5014880;28;20405;-45
2020/12/05 03:01:58;;;;;;;0.73;0.70;;;18.30;45.60;;;;;;5014742;28;20018;-45
2020/12/05 03:04:24;;;;;;;1.35;1.20;;;18.30;45.60;;;;;;5014689;28;20036;-48
2020/12/05 03:06:50;;;;;;;0.77;0.68;;;18.30;45.60;;;;;;5014865;28;20097;-45
2020/12/05 03:09:15;;;;;;;1.00;0.90;;;18.30;45.60;;;;;;5019024;28;20425;-47
2020/12/05 03:11:41;;;;;;;1.15;0.90;;;18.30;45.60;;;;;;5018883;28;20049;-45
2020/12/05 03:14:07;;;;;;;1.52;1.13;;;18.30;45.60;;;;;;5018790;28;20368;-45
2020/12/05 03:16:33;;;;;;;0.80;0.80;;;18.20;45.50;;;;;;5018683;28;20117;-44
2020/12/05 03:18:58;;;;;;;1.02;0.90;;;18.30;45.60;;;;;;5018601;28;20088;-44
2020/12/05 03:21:24;;;;;;;0.93;0.80;;;18.20;45.50;;;;;;5018394;28;20437;-44
2020/12/05 03:23:50;;;;;;;0.73;0.70;;;18.20;45.50;;;;;;5018664;28;20064;-45
2020/12/05 03:26:15;;;;;;;0.55;0.55;;;18.20;45.50;;;;;;5018680;28;20053;-45
2020/12/05 03:28:41;;;;;;;0.75;0.75;;;18.20;45.50;;;;;;5018038;28;20172;-45
2020/12/05 03:31:09;;;;;;;0.80;0.80;;;18.20;45.50;;;;;;5018389;28;20551;-45
2020/12/05 03:33:36;;;;;;;1.02;0.73;;;18.20;45.50;;;;;;5018073;28;20030;-46
2020/12/05 03:36:02;;;;;;;0.90;0.90;;;18.20;45.50;;;;;;5018188;28;20034;-45
2020/12/05 03:38:28;;;;;;;0.88;0.80;;;18.20;45.50;;;;;;5018390;28;20411;-47
2020/12/05 03:40:53;;;;;;;1.38;0.70;;;18.20;45.50;;;;;;5018390;28;20030;-45
2020/12/05 03:43:19;;;;;;;0.70;0.70;;;18.30;45.50;;;;;;5018466;28;20045;-47
2020/12/05 03:45:44;;;;;;;0.80;0.80;;;18.30;45.50;;;;;;5018236;28;20087;-44
2020/12/05 03:48:12;;;;;;;1.10;0.90;;;18.20;45.40;;;;;;5017769;28;20026;-46
2020/12/05 03:50:38;;;;;;;0.75;0.70;;;18.30;45.40;;;;;;5018782;28;20139;-47
2020/12/05 03:53:04;;;;;;;1.02;0.70;;;18.30;45.40;;;;;;5017763;28;20049;-46
2020/12/05 03:55:29;;;;;;;0.77;0.77;;;18.30;45.40;;;;;;5017555;28;20030;-46
2020/12/05 03:57:55;;;;;;;1.00;0.75;;;18.30;45.40;;;;;;5017929;28;20022;-45
2020/12/05 04:00:20;;;;;;;1.75;0.80;;;18.30;45.40;;;;;;5018110;28;20026;-45
2020/12/05 04:02:46;;;;;;;0.77;0.77;;;18.30;45.30;;;;;;5017722;28;20517;-46
2020/12/05 04:05:11;;;;;;;1.05;0.80;;;18.30;45.30;;;;;;5017685;28;20040;-45
2020/12/05 04:07:37;;;;;;;0.90;0.80;;;18.30;45.30;;;;;;5017576;28;20030;-45
2020/12/05 04:10:03;;;;;;;0.70;0.70;;;18.30;45.30;;;;;;5017799;28;20030;-45
2020/12/05 04:12:29;;;;;;;1.10;0.77;;;18.30;45.20;;;;;;5017453;28;20037;-46
2020/12/05 04:14:54;;;;;;;0.50;0.50;;;18.30;45.20;;;;;;5017572;28;20099;-46
2020/12/05 04:17:20;;;;;;;0.75;0.75;;;18.30;45.20;;;;;;5017285;28;20364;-46
2020/12/05 04:19:48;;;;;;;0.98;0.60;;;18.30;45.20;;;;;;5016999;28;20105;-46
2020/12/05 04:22:14;;;;;;;0.70;0.68;;;18.20;45.10;;;;;;5016971;28;20033;-45
2020/12/05 04:24:40;;;;;;;1.00;0.90;;;18.20;45.10;;;;;;5017298;28;20160;-45
2020/12/05 04:27:05;;;;;;;0.80;0.80;;;18.30;45.10;;;;;;5017234;28;20345;-44
2020/12/05 04:29:31;;;;;;;0.57;0.57;;;18.30;45.10;;;;;;5017241;28;20460;-45
2020/12/05 04:31:56;;;;;;;0.80;0.70;;;18.20;45.00;;;;;;5016923;28;20034;-44
2020/12/05 04:34:22;;;;;;;0.88;0.80;;;18.30;45.00;;;;;;5017293;28;20425;-46
2020/12/05 04:36:47;;;;;;;1.35;0.70;;;18.30;45.00;;;;;;5017594;28;20030;-46
2020/12/05 04:39:13;;;;;;;0.88;0.80;;;18.20;45.00;;;;;;5000063;28;20030;-46
2020/12/05 04:41:43;;;;;;;2.03;0.70;;;18.30;45.00;;;;;;5016885;28;20026;-46
2020/12/05 04:44:11;;;;;;;0.60;0.60;;;18.30;45.00;;;;;;5016955;28;20084;-45
2020/12/05 04:46:36;;;;;;;0.60;0.60;;;18.20;45.00;;;;;;5016863;28;20077;-45
2020/12/05 04:49:03;;;;;;;0.70;0.68;;;18.20;45.00;;;;;;5016967;28;20056;-46
2020/12/05 04:51:37;;;;;;;0.98;0.88;;;18.20;44.90;;;;;;5017106;28;20048;-45
2020/12/05 04:54:07;;;;;;;0.70;0.60;;;18.20;45.00;;;;;;5017042;28;20421;-45
2020/12/05 04:56:36;;;;;;;1.85;0.80;;;18.20;44.90;;;;;;5016726;28;20026;-45
2020/12/05 04:59:03;;;;;;;0.63;0.63;;;18.30;45.00;;;;;;5016661;28;20030;-45
2020/12/05 05:01:34;;;;;;;0.70;0.65;;;18.20;45.00;;;;;;5016440;28;20030;-47
2020/12/05 05:04:00;;;;;;;0.93;0.70;;;18.30;45.60;;;;;;5017073;28;20353;-46
2020/12/05 05:06:26;;;;;;;1.42;0.98;;;18.30;45.00;;;;;;5016809;28;20037;-44
2020/12/05 05:08:51;;;;;;;0.75;0.50;;;18.20;44.90;;;;;;4999433;28;20034;-47
2020/12/05 05:11:18;;;;;;;0.63;0.63;;;18.30;44.90;;;;;;5016039;28;20037;-47
2020/12/05 05:14:03;;;;;;;0.93;0.75;;;18.20;44.80;;;;;;5016486;28;20038;-46
2020/12/05 05:16:29;;;;;;;0.85;0.73;;;18.30;44.90;;;;;;5016509;28;20021;-46
2020/12/05 05:19:20;;;;;;;0.88;0.68;;;18.20;45.50;;;;;;5016569;28;20041;-46
2020/12/05 05:21:46;;;;;;;0.88;0.70;;;18.20;44.80;;;;;;5016492;28;20033;-46
2020/12/05 05:24:18;;;;;;;1.15;0.80;;;18.20;44.80;;;;;;5016329;28;20496;-44
2020/12/05 05:26:57;;;;;;;0.55;0.47;;;18.20;44.80;;;;;;5016333;28;20135;-46
2020/12/05 05:29:25;;;;;;;0.82;0.77;;;18.20;44.80;;;;;;5016044;28;20439;-46
2020/12/05 05:31:55;;;;;;;0.82;0.82;;;18.20;44.70;;;;;;5015634;28;20080;-47
2020/12/05 05:34:22;;;;;;;0.65;0.65;;;18.20;44.70;;;;;;5016047;28;20103;-45
2020/12/05 05:36:50;;;;;;;1.17;0.60;;;18.20;44.70;;;;;;5015800;28;20037;-46
2020/12/05 05:39:17;;;;;;;0.60;0.60;;;18.20;45.40;;;;;;5015930;28;20034;-46
2020/12/05 05:42:01;;;;;;;1.13;0.77;;;18.20;44.70;;;;;;5015916;28;20344;-46
2020/12/05 05:44:27;;;;;;;1.52;0.90;;;18.30;44.70;;;;;;5015949;28;20018;-44
2020/12/05 05:46:53;;;;;;;0.90;0.70;;;18.30;44.70;;;;;;5015820;28;20026;-47
2020/12/05 05:49:24;;;;;;;0.80;0.60;;;18.20;44.70;;;;;;5015828;28;20057;-45
2020/12/05 05:51:50;;;;;;;0.70;0.70;;;18.20;44.60;;;;;;5015758;28;20376;-44
2020/12/05 05:54:30;;;;;;;0.60;0.60;;;18.20;44.60;;;;;;5015951;28;20037;-44
2020/12/05 05:57:05;;;;;;;0.85;0.70;;;18.20;44.60;;;;;;5015774;28;20101;-44
2020/12/05 05:59:33;;;;;;;0.70;0.70;;;18.20;44.50;;;;;;5015582;28;20111;-48
2020/12/05 06:01:59;;;;;;;0.70;0.70;;;18.20;44.50;;;;;;5015655;28;20025;-46
2020/12/05 06:04:30;;;;;;;0.85;0.40;;;18.20;44.50;;;;;;5015443;28;20026;-46
2020/12/05 06:06:57;;;;;;;0.88;0.82;;;18.20;44.50;;;;;;5015745;28;20041;-47
2020/12/05 06:09:34;;;;;;;0.65;0.65;;;18.20;44.50;;;;;;5015443;28;20018;-46
2020/12/05 06:12:02;;;;;;;0.57;0.50;;;18.20;44.50;;;;;;5015116;28;20030;-49
2020/12/05 06:14:28;;;;;;;0.40;0.40;;;18.20;44.50;;;;;;5015394;28;20022;-44
2020/12/05 06:16:56;;;;;;;0.68;0.68;;;18.20;44.50;;;;;;5015377;28;20332;-46
2020/12/05 06:19:23;;;;;;;0.80;0.70;;;18.20;44.50;;;;;;5015438;28;20025;-46
2020/12/05 06:21:52;;;;;;;0.45;0.45;;;18.20;44.50;;;;;;5015510;28;20022;-46
2020/12/05 06:24:33;;;;;;;0.70;0.63;;;18.20;44.40;;;;;;5015411;28;20109;-48
2020/12/05 06:27:01;;;;;;;0.90;0.63;;;18.20;44.40;;;;;;5014872;28;20457;-44
2020/12/05 06:29:27;;;;;;;0.63;0.63;;;18.20;44.40;;;;;;5015295;28;20128;-44
2020/12/05 06:31:52;;;;;;;0.80;0.60;;;18.20;44.40;;;;;;5014931;28;20069;-45
2020/12/05 06:34:41;;;;;;;0.55;0.55;;;18.20;44.40;;;;;;5015324;28;20060;-46
2020/12/05 06:37:12;;;;;;;1.30;0.80;;;18.20;44.40;;;;;;5015128;28;20469;-45
2020/12/05 06:39:38;;;;;;;1.02;0.80;;;18.20;44.40;;;;;;5014798;28;20026;-45
2020/12/05 06:42:03;;;;;;;0.85;0.63;;;18.20;44.30;;;;;;5017175;28;20022;-45
2020/12/05 06:44:31;;;;;;;0.65;0.50;;;18.20;44.40;;;;;;5019484;28;20441;-48
2020/12/05 06:46:58;;;;;;;0.60;0.60;;;18.20;44.40;;;;;;5019200;28;20105;-44
2020/12/05 06:49:39;;;;;;;1.20;0.63;;;18.20;44.40;;;;;;5019365;28;20115;-46
2020/12/05 06:52:25;;;;;;;0.65;0.52;;;18.20;44.30;;;;;;5018955;28;20377;-47
2020/12/05 06:54:54;;;;;;;1.42;0.73;;;18.30;44.40;;;;;;5019280;28;20018;-46
2020/12/05 06:57:21;;;;;;;0.57;0.47;;;18.20;44.30;;;;;;5019152;28;20026;-46
2020/12/05 06:59:47;;;;;;;1.20;0.70;;;18.20;44.30;;;;;;5018981;28;20376;-45
2020/12/05 07:02:28;;;;;;;0.93;0.65;;;18.20;44.20;;;;;;5018591;28;20026;-45
2020/12/05 07:05:21;;;;;;;0.50;0.50;;;18.20;44.20;;;;;;5019070;28;20438;-45
2020/12/05 07:07:47;;;;;;;0.93;0.63;;;18.20;44.20;;;;;;4981863;28;20425;-44
2020/12/05 07:10:13;;;;;;;0.57;0.57;;;18.20;44.20;;;;;;5018781;28;20026;-47
2020/12/05 07:12:40;;;;;;;1.48;0.80;;;18.20;44.20;;;;;;5018718;28;20052;-45
2020/12/05 07:15:27;;;;;;;0.88;0.60;;;18.20;44.20;;;;;;5018815;28;20032;-46
2020/12/05 07:17:57;;;;;;;0.70;0.57;;;18.20;44.20;;;;;;5018881;28;20097;-46
2020/12/05 07:20:24;;;;;;;1.17;0.73;;;18.20;44.20;;;;;;5018913;28;20030;-47
2020/12/05 07:22:54;;;;;;;0.80;0.60;;;18.20;44.20;;;;;;5018703;28;20025;-45
2020/12/05 07:25:21;;;;;;;0.82;0.60;;;18.20;44.20;;;;;;5018358;28;20076;-46
2020/12/05 07:27:47;;;;;;;0.82;0.60;;;18.20;44.10;;;;;;5018432;28;20391;-46
2020/12/05 07:30:13;;;;;;;0.60;0.60;;;18.20;44.10;;;;;;5018696;28;20105;-45
2020/12/05 07:32:42;;;;;;;0.85;0.68;;;18.30;44.10;;;;;;5018424;28;20471;-45
2020/12/05 07:35:12;;;;;;;0.40;0.40;;;18.30;44.10;;;;;;5017882;28;20026;-45
2020/12/05 07:37:38;;;;;;;0.30;0.30;;;18.20;44.10;;;;;;5018231;28;20026;-45
2020/12/05 07:40:06;;;;;;;0.50;0.47;;;18.30;44.10;;;;;;5017457;28;20045;-44
2020/12/05 07:42:42;;;;;;;0.88;0.63;;;18.20;44.00;;;;;;5018209;28;20341;-46
2020/12/05 07:45:09;;;;;;;1.08;0.75;;;18.20;44.10;;;;;;5017932;28;20025;-46
2020/12/05 07:47:36;;;;;;;0.50;0.50;;;18.30;44.10;;;;;;5017708;28;20348;-45
2020/12/05 07:50:02;;;;;;;0.52;0.52;;;18.20;44.00;;;;;;5018271;28;20048;-46
2020/12/05 07:52:28;;;;;;;0.70;0.50;;;18.20;44.00;;;;;;5017814;28;20344;-46
2020/12/05 07:54:56;;;;;;;0.50;0.50;;;18.30;44.00;;;;;;5017303;28;20029;-47
2020/12/05 07:57:26;;;;;;;0.90;0.50;;;18.20;43.90;;;;;;5018127;28;20037;-46
2020/12/05 08:00:01;;;;;;;0.70;0.70;;;18.20;43.90;;;;;;5017563;28;20453;-46
2020/12/05 08:02:35;;;;;;;0.57;0.57;;;18.20;44.00;;;;;;5017444;28;20025;-45
2020/12/05 08:05:05;;;;;;;0.50;0.50;;;18.20;43.90;;;;;;5017391;28;20346;-46
2020/12/05 08:07:38;;;;;;;0.77;0.55;;;18.20;43.90;;;;;;5017716;28;20018;-46
2020/12/05 08:10:08;;;;;;;0.88;0.70;;;18.20;43.90;;;;;;5017922;28;20101;-44
2020/12/05 08:12:43;;;;;;;0.73;0.65;;;18.30;44.00;;;;;;5017455;28;20072;-45
2020/12/05 08:15:13;;;;;;;1.13;0.88;;;18.30;44.10;;;;;;5017405;28;20482;-46
2020/12/05 08:17:41;;;;;;;0.70;0.70;;;18.30;44.10;;;;;;5017242;28;20030;-45
2020/12/05 08:20:07;;;;;;;0.82;0.80;;;18.30;44.20;;;;;;5017528;28;20037;-46
2020/12/05 08:22:36;;;;;;;0.77;0.75;;;18.30;44.20;;;;;;5016055;28;20030;-48
2020/12/05 08:25:02;;;;;;;2.72;1.40;;;18.30;44.40;;;;;;5016994;28;20461;-45
2020/12/05 08:27:29;;;;;;;0.80;0.70;;;18.30;44.50;;;;;;5017360;28;20034;-44
2020/12/05 08:29:57;;;;;;;2.00;0.80;;;18.30;44.70;;;;;;5017010;28;20030;-45
2020/12/05 08:32:24;;;;;;;2.03;0.82;;;18.30;44.80;;;;;;5017085;28;20041;-46
2020/12/05 08:34:49;;;;;;;0.95;0.90;;;18.30;44.90;;;;;;5017054;28;20025;-46
2020/12/05 08:37:25;;;;;;;1.17;0.88;;;18.30;44.90;;;;;;4999845;28;20057;-46
2020/12/05 08:39:53;;;;;;;3.13;0.85;;;18.30;45.00;;;;;;5017149;28;20399;-45
2020/12/05 08:42:18;;;;;;;2.60;1.08;;;18.30;44.80;;;;;;5017190;28;20026;-45
2020/12/05 08:44:44;;;;;;;1.05;0.75;;;18.40;44.80;;;;;;5016668;28;20117;-45
2020/12/05 08:47:09;;;;;;;1.15;0.63;;;18.30;44.80;;;;;;5017231;28;20024;-45
2020/12/05 08:49:37;;;;;;;1.58;0.65;;;18.30;44.90;;;;;;5016467;28;20042;-47
2020/12/05 08:52:04;;;;;;;1.58;0.63;;;18.40;44.90;;;;;;5016753;28;20104;-46
2020/12/05 08:54:29;;;;;;;3.58;1.00;;;18.40;45.00;;;;;;5016760;28;20053;-47
2020/12/05 08:57:09;;;;;;;0.85;0.77;;;18.40;45.00;;;;;;5016800;28;20026;-45
2020/12/05 08:59:35;;;;;;;1.52;0.40;;;18.40;45.00;;;;;;5016573;28;20030;-46
2020/12/05 09:02:01;;;;;;;1.73;0.80;;;18.40;45.00;;;;;;5016918;28;20333;-46
2020/12/05 09:04:28;;;;;;;1.25;0.98;;;18.40;45.00;;;;;;5015870;28;20464;-47
2020/12/05 09:07:05;;;;;;;1.27;0.70;;;18.40;45.00;;;;;;5016287;28;20030;-46
2020/12/05 09:09:30;;;;;;;0.82;0.70;;;18.40;45.10;;;;;;5016114;28;20029;-47
2020/12/05 09:12:13;;;;;;;1.08;0.70;;;18.40;45.00;;;;;;5016218;28;20049;-45
2020/12/05 09:14:39;;;;;;;3.90;0.77;;;18.40;45.10;;;;;;5016417;28;20030;-45
2020/12/05 09:17:24;;;;;;;1.50;0.57;;;18.40;45.00;;;;;;5016741;28;20083;-46
2020/12/05 09:20:08;;;;;;;1.73;0.77;;;18.40;45.10;;;;;;5016357;28;20025;-46
2020/12/05 09:22:34;;;;;;;1.17;0.95;;;18.40;45.10;;;;;;5015725;28;20563;-46
2020/12/05 09:25:00;;;;;;;3.70;0.60;;;18.40;45.10;;;;;;5016319;28;20026;-46
2020/12/05 09:27:37;;;;;;;0.73;0.50;;;18.40;45.10;;;;;;5016377;28;20349;-45
2020/12/05 09:30:06;;;;;;;1.00;0.73;;;18.40;45.20;;;;;;5016265;28;20022;-45
2020/12/05 09:32:38;;;;;;;0.60;0.60;;;18.40;45.20;;;;;;5015866;28;20038;-47
2020/12/05 09:35:04;;;;;;;0.68;0.55;;;18.40;45.20;;;;;;5015777;28;20049;-46
2020/12/05 09:37:29;;;;;;;2.15;0.68;;;18.50;45.20;;;;;;5015772;28;20352;-47
2020/12/05 09:39:55;;;;;;;1.38;0.77;;;18.50;45.30;;;;;;5015993;28;20026;-45
2020/12/05 09:42:22;;;;;;;0.70;0.57;;;18.50;45.30;;;;;;5015469;28;20033;-45
2020/12/05 09:44:48;;;;;;;3.75;0.75;;;18.50;45.30;;;;;;5015916;28;20026;-45
2020/12/05 09:47:14;;;;;;;4.90;0.88;;;18.50;45.30;;;;;;5015532;28;20040;-48
2020/12/05 09:49:40;;;;;;;1.90;0.90;;;18.50;45.50;;;;;;5013702;28;20074;-45
2020/12/05 09:52:05;;;;;;;8.32;0.98;;;18.50;45.90;;;;;;5034812;28;20120;-46
2020/12/05 09:54:31;;;;;;;0.98;0.80;;;18.50;45.90;;;;;;5034966;28;20056;-46
2020/12/05 09:56:57;;;;;;;5.80;1.05;;;18.50;46.00;;;;;;5035239;28;20025;-46
2020/12/05 09:59:22;;;;;;;2.05;0.75;;;18.50;46.00;;;;;;5035443;28;20083;-46
2020/12/05 10:01:48;;;;;;;3.45;1.23;;;18.60;46.10;;;;;;5035021;28;20021;-47
2020/12/05 10:04:16;;;;;;;1.42;0.60;;;18.60;46.00;;;;;;5035264;28;20420;-49
2020/12/05 10:06:42;;;;;;;3.75;0.88;;;18.60;46.00;;;;;;5035288;28;20047;-46
2020/12/05 10:09:07;;;;;;;1.05;0.57;;;18.60;46.00;;;;;;5035099;28;20487;-46
2020/12/05 10:11:33;;;;;;;1.05;0.70;;;18.70;46.00;;;;;;5034809;28;20048;-45
2020/12/05 10:13:58;;;;;;;1.95;0.80;;;18.70;45.90;;;;;;5017611;28;20034;-46
2020/12/05 10:16:24;;;;;;;1.27;0.70;;;18.70;45.80;;;;;;5035113;28;20029;-49
2020/12/05 10:18:49;;;;;;;1.10;0.70;;;18.80;45.80;;;;;;5034834;28;20134;-45
2020/12/05 10:21:14;;;;;;;0.80;0.73;;;18.80;45.70;;;;;;5035053;28;20036;-46
2020/12/05 10:23:40;;;;;;;0.95;0.50;;;18.80;45.70;;;;;;5034923;28;20025;-46
2020/12/05 10:26:07;;;;;;;1.15;0.75;;;18.80;45.70;;;;;;5034803;28;20025;-47
2020/12/05 10:28:32;;;;;;;1.55;0.55;;;18.90;45.70;;;;;;5034391;28;20448;-45
2020/12/05 10:30:58;;;;;;;0.88;0.52;;;18.90;45.60;;;;;;5034600;28;20038;-47
2020/12/05 10:33:23;;;;;;;1.40;0.65;;;19.00;45.60;;;;;;5034838;28;20091;-45
2020/12/05 10:35:49;;;;;;;0.80;0.68;;;19.00;45.60;;;;;;5034715;28;20013;-50
2020/12/05 10:38:14;;;;;;;4.28;0.82;;;19.00;45.50;;;;;;5034723;28;20030;-48
2020/12/05 10:40:40;;;;;;;2.58;0.88;;;19.00;45.50;;;;;;5034914;28;20109;-49
2020/12/05 10:43:05;;;;;;;0.45;0.40;;;19.10;45.50;;;;;;5034071;28;20082;-47
2020/12/05 10:45:31;;;;;;;0.68;0.50;;;19.10;45.50;;;;;;5034866;28;20029;-52
2020/12/05 10:47:57;;;;;;;1.38;0.50;;;19.10;45.50;;;;;;5034661;28;20025;-51
2020/12/05 10:50:22;;;;;;;1.95;0.95;;;19.10;45.50;;;;;;5034961;28;20373;-53
2020/12/05 10:52:48;;;;;;;1.23;0.80;;;19.10;45.80;;;;;;5034508;28;20176;-46
2020/12/05 10:55:13;;;;;;;2.83;1.05;;;19.10;46.10;;;;;;5034214;28;20108;-48
2020/12/05 10:57:38;;;;;;;2.88;0.77;;;19.10;46.40;;;;;;5034371;28;20029;-46
2020/12/05 11:00:04;;;;;;;9.77;1.02;;;19.10;46.30;;;;;;5034465;28;20029;-49
2020/12/05 11:02:29;;;;;;;7.20;1.10;;;19.10;46.50;;;;;;5034812;28;20103;-52
2020/12/05 11:04:55;;;;;;;9.98;1.30;;;19.10;46.50;;;;;;5034897;28;20029;-52
2020/12/05 11:07:20;;;;;;;2.88;1.63;;;19.10;46.50;;;;;;5034506;28;20033;-52
2020/12/05 11:09:46;;;;;;;6.63;2.05;;;19.10;45.30;;;;;;5034088;28;20025;-53
2020/12/05 11:12:11;;;;;;;7.75;1.20;;;19.00;43.00;;;;;;5033955;28;20040;-51
2020/12/05 11:14:37;;;;;;;2.83;0.90;;;18.90;44.80;;;;;;5034358;28;20026;-46
2020/12/05 11:17:02;;;;;;;0.88;0.63;;;18.90;45.30;;;;;;5034457;28;20028;-47
2020/12/05 11:19:28;;;;;;;1.08;0.90;;;18.90;45.60;;;;;;5034315;28;20368;-49
2020/12/05 11:21:53;;;;;;;1.05;0.70;;;19.00;45.70;;;;;;5034525;28;20096;-52
2020/12/05 11:24:19;;;;;;;5.38;1.13;;;19.00;45.90;;;;;;5034311;28;20048;-54
2020/12/05 11:26:45;;;;;;;7.43;1.13;;;19.10;46.10;;;;;;5034293;28;20021;-50
2020/12/05 11:29:11;;;;;;;7.05;0.70;;;19.10;46.00;;;;;;5036313;28;20049;-49
2020/12/05 11:31:36;;;;;;;4.90;0.80;;;19.10;45.90;;;;;;5037635;28;20498;-49
2020/12/05 11:34:01;;;;;;;2.38;0.70;;;19.10;45.90;;;;;;5038148;28;20105;-54
2020/12/05 11:36:27;;;;;;;2.15;0.90;;;19.20;46.00;;;;;;5020457;28;20080;-51
2020/12/05 11:38:53;;;;;;;3.47;0.90;;;19.20;46.00;;;;;;5040728;28;20032;-51
2020/12/05 11:41:18;;;;;;;1.58;0.77;;;19.20;46.00;;;;;;5043135;28;20447;-50
2020/12/05 11:43:43;;;;;;;1.05;0.60;;;19.20;45.90;;;;;;5057759;28;20033;-49
2020/12/05 11:46:12;;;;;;;1.45;0.70;;;19.20;46.00;;;;;;5057861;28;20032;-49
2020/12/05 11:48:37;;;;;;;2.88;0.80;;;19.20;46.00;;;;;;5057560;28;20053;-49
2020/12/05 11:51:03;;;;;;;2.80;0.80;;;19.20;46.00;;;;;;5057799;28;20071;-50
2020/12/05 11:53:28;;;;;;;4.15;1.00;;;19.20;46.00;;;;;;5057597;28;20033;-48
2020/12/05 11:55:54;;;;;;;0.85;0.50;;;19.20;46.00;;;;;;5057628;28;20025;-51
2020/12/05 11:58:19;;;;;;;2.05;0.80;;;19.20;46.00;;;;;;5057704;28;20355;-51
2020/12/05 12:00:45;;;;;;;1.10;0.77;;;19.20;46.00;;;;;;5057868;28;20059;-52
2020/12/05 12:03:11;;;;;;;1.40;0.77;;;19.20;46.00;;;;;;5057597;28;20039;-48
2020/12/05 12:05:37;;;;;;;0.90;0.55;;;19.20;46.00;;;;;;5057258;28;20466;-50
2020/12/05 12:08:02;;;;;;;3.47;0.68;;;19.20;46.00;;;;;;5057385;28;20049;-49
2020/12/05 12:10:28;;;;;;;5.45;0.90;;;19.20;46.00;;;;;;5057168;28;20031;-52
2020/12/05 12:12:53;;;;;;;0.65;0.55;;;19.20;46.00;;;;;;5057333;28;20305;-49
2020/12/05 12:15:19;;;;;;;2.78;0.60;;;19.20;45.90;;;;;;5056912;28;20052;-49
2020/12/05 12:17:44;;;;;;;1.30;0.63;;;19.20;45.90;;;;;;5057380;28;20040;-48
2020/12/05 12:20:10;;;;;;;2.20;0.68;;;19.20;45.90;;;;;;5057524;28;20335;-51
2020/12/05 12:22:36;;;;;;;2.13;0.60;;;19.20;45.90;;;;;;5057112;28;20424;-47
2020/12/05 12:25:03;;;;;;;0.75;0.43;;;19.20;45.90;;;;;;5056679;28;20031;-45
2020/12/05 12:27:28;;;;;;;0.63;0.50;;;19.20;45.90;;;;;;5056980;28;20021;-51
2020/12/05 12:29:54;;;;;;;2.08;0.98;;;19.20;45.80;;;;;;5057050;28;20040;-51
2020/12/05 12:32:19;;;;;;;0.88;0.70;;;19.10;45.80;;;;;;5056925;28;20033;-48
2020/12/05 12:34:45;;;;;;;1.25;0.60;;;19.10;45.80;;;;;;5057124;28;20022;-49
2020/12/05 12:37:11;;;;;;;0.57;0.50;;;19.10;45.80;;;;;;5056964;28;20028;-50
2020/12/05 12:39:36;;;;;;;1.10;0.60;;;19.10;45.80;;;;;;5056770;28;20027;-49
2020/12/05 12:42:02;;;;;;;1.25;0.50;;;19.10;45.70;;;;;;5056619;28;20029;-50
2020/12/05 12:44:28;;;;;;;0.50;0.35;;;19.10;45.70;;;;;;5057029;28;20086;-50
2020/12/05 12:47:07;;;;;;;1.45;0.82;;;19.10;45.70;;;;;;5056767;28;20082;-53
2020/12/05 12:49:39;;;;;;;1.13;0.70;;;19.10;45.70;;;;;;5056865;28;20045;-50
2020/12/05 12:52:05;;;;;;;2.58;0.40;;;19.10;45.70;;;;;;5056306;28;20033;-53